European Causeway — C6RG7 — position and weather

sailwx.info

Track history (hours):
 
Tides and Currents Weather Stations Pressure Air Temp Water Temp Dewpoint Dewpoint Depression Visibility Wind Speed Wind Dir Waves Ship Positions

European Causeway

Operator: P & O Irish Sea

Last reported at 2017-Aug-18 10:30 UTC. Time now 2017-Aug-18 10:51 UTC.
Position N 54°59' W 005°23'.

Length 165 m; draft 5.5 m.

Type: Ship (hazmat cat A). MMSI: 311027000.

Date/timePositionNaut miles runAvg speedWind from/ knotsBaromVisibWave heightAir tempDewpointWater temp
2017-Aug-18 10:30N 54°59' W 005°23'1019.4
2017-Aug-18 10:00N 55°02' W 005°07'510.8
2017-Aug-18 09:30N 54°58' W 005°01'0 0.0
2017-Aug-18 09:00N 54°58' W 005°01'0 0.0
2017-Aug-18 08:30N 54°58' W 005°01'510.1
2017-Aug-18 08:00N 55°02' W 005°07'919.0
2017-Aug-18 07:30N 54°58' W 005°22'1019.3
2017-Aug-18 07:00N 54°54' W 005°37'714.0
2017-Aug-18 06:30N 54°51' W 005°48'0 0.0
2017-Aug-18 06:00N 54°51' W 005°48'0 0.0
2017-Aug-18 05:30N 54°51' W 005°48'0 0.7
2017-Aug-18 05:00N 54°51' W 005°48'816.9
2017-Aug-18 04:31N 54°55' W 005°35'1020.1
2017-Aug-18 04:00N 54°59' W 005°19'915.5
2017-Aug-18 03:26N 54°59' W 005°03'2 4.1
2017-Aug-18 02:54N 54°58' W 005°01'0 0.0
2017-Aug-18 02:24N 54°58' W 005°01'0 0.0
2017-Aug-18 01:54N 54°58' W 005°01'0 0.0
2017-Aug-18 01:24N 54°58' W 005°01'0 0.1
2017-Aug-18 01:00N 54°58' W 005°01'610.3
2017-Aug-18 00:28N 55°02' W 005°08'919.2
2017-Aug-18 00:00N 54°58' W 005°22'918.9
2017-Aug-17 23:31N 54°54' W 005°37'714.1
2017-Aug-17 23:01N 54°51' W 005°48'0 0.1
2017-Aug-17 22:31N 54°51' W 005°48'0 0.0
2017-Aug-17 22:00N 54°51' W 005°48'0 0.0
2017-Aug-17 21:30N 54°51' W 005°48'3 5.8
2017-Aug-17 21:00N 54°53' W 005°44'1121.5
2017-Aug-17 20:30N 54°58' W 005°28'1121.8
2017-Aug-17 20:00N 55°02' W 005°10'714.1
2017-Aug-17 19:31N 54°58' W 005°01'0 0.0
2017-Aug-17 19:01N 54°58' W 005°01'0 0.0
2017-Aug-17 18:30N 54°58' W 005°01'0 0.2
2017-Aug-17 18:01N 54°58' W 005°01'713.0
2017-Aug-17 17:30N 55°01' W 005°11'1020.5
2017-Aug-17 17:01N 54°56' W 005°26'1121.3
2017-Aug-17 16:30N 54°53' W 005°44'3 6.0
2017-Aug-17 16:00N 54°51' W 005°48'0 0.0
2017-Aug-17 15:30N 54°51' W 005°48'3 5.3
2017-Aug-17 15:00N 54°53' W 005°44'1020.1
2017-Aug-17 14:30N 54°57' W 005°29'1020.6
2017-Aug-17 14:00N 55°01' W 005°12'612.9
2017-Aug-17 13:30N 54°59' W 005°02'1 2.3
2017-Aug-17 13:00N 54°58' W 005°01'0 0.0
2017-Aug-17 12:30N 54°58' W 005°01'0 0.0
2017-Aug-17 12:00N 54°58' W 005°01'0 0.0
2017-Aug-17 11:30N 54°58' W 005°01'5 9.4
2017-Aug-17 10:58N 55°02' W 005°07'919.1
2017-Aug-17 10:31N 54°58' W 005°21'1019.1
2017-Aug-17 10:01N 54°54' W 005°36'815.3
2017-Aug-17 09:31N 54°51' W 005°48'0 0.3
2017-Aug-17 09:00N 54°51' W 005°48'0 0.0
2017-Aug-17 08:30N 54°51' W 005°48'5 9.2
2017-Aug-17 08:00N 54°54' W 005°41'918.4
2017-Aug-17 07:30N 54°58' W 005°27'918.1
2017-Aug-17 07:00N 55°01' W 005°13'714.4
2017-Aug-17 06:31N 54°58' W 005°02'0 0.6
2017-Aug-17 05:50N 54°58' W 005°01'0 0.0
2017-Aug-17 05:26N 54°58' W 005°01'0 0.0
2017-Aug-17 04:59N 54°58' W 005°01'510.0
2017-Aug-17 04:28N 55°02' W 005°07'817.7
2017-Aug-17 04:01N 54°58' W 005°20'918.8
2017-Aug-17 03:31N 54°55' W 005°35'812.9
2017-Aug-17 02:52N 54°51' W 005°48'0 0.0
2017-Aug-17 02:28N 54°51' W 005°48'0 0.0
2017-Aug-17 01:58N 54°51' W 005°48'0 0.0
2017-Aug-17 01:28N 54°51' W 005°48'0 0.1
2017-Aug-17 01:00N 54°51' W 005°48'714.6
2017-Aug-17 00:31N 54°55' W 005°37'1020.5
2017-Aug-17 00:00N 54°59' W 005°21'1018.1
2017-Aug-16 23:29N 55°01' W 005°04'4 7.0
2017-Aug-16 22:58N 54°58' W 005°01'0 0.0
2017-Aug-16 22:25N 54°58' W 005°01'0 0.0
2017-Aug-16 21:58N 54°58' W 005°01'0 0.0
2017-Aug-16 21:28N 54°58' W 005°01'0 0.0
2017-Aug-16 21:00N 54°58' W 005°01'510.6
2017-Aug-16 20:30N 55°02' W 005°07'918.6
2017-Aug-16 20:00N 54°58' W 005°22'1020.3
2017-Aug-16 19:31N 54°54' W 005°37'713.3
2017-Aug-16 19:00N 54°51' W 005°48'0 0.0
2017-Aug-16 18:30N 54°51' W 005°48'0 0.0
2017-Aug-16 18:00N 54°51' W 005°48'611.6
2017-Aug-16 17:31N 54°54' W 005°39'1020.0
2017-Aug-16 17:00N 54°58' W 005°24'1019.6
2017-Aug-16 16:30N 55°02' W 005°08'611.8
2017-Aug-16 16:00N 54°58' W 005°01'0 0.0
2017-Aug-16 15:30N 54°58' W 005°01'0 0.0
2017-Aug-16 15:00N 54°58' W 005°01'611.6
2017-Aug-16 14:31N 55°02' W 005°08'1020.0
2017-Aug-16 14:01N 54°57' W 005°24'1121.1
2017-Aug-16 13:30N 54°53' W 005°41'5 8.0
2017-Aug-16 12:56N 54°51' W 005°48'0 0.0
2017-Aug-16 12:29N 54°51' W 005°48'0 0.0
2017-Aug-16 12:00N 54°51' W 005°48'510.0
2017-Aug-16 11:31N 54°54' W 005°41'1019.8
2017-Aug-16 11:00N 54°59' W 005°26'1020.4
2017-Aug-16 10:30N 55°02' W 005°09'612.2
2017-Aug-16 10:00N 54°58' W 005°01'0 0.0
2017-Aug-16 09:29N 54°58' W 005°01'0 0.0
2017-Aug-16 08:50N 54°58' W 005°01'0 0.0
2017-Aug-16 08:26N 54°58' W 005°01'511.0
2017-Aug-16 07:57N 55°02' W 005°07'818.3
2017-Aug-16 07:30N 54°58' W 005°20'917.5
2017-Aug-16 07:00N 54°55' W 005°34'816.9
2017-Aug-16 06:30N 54°51' W 005°48'1 1.1
2017-Aug-16 06:01N 54°51' W 005°48'0 0.0
2017-Aug-16 05:31N 54°51' W 005°48'0 0.0
2017-Aug-16 05:01N 54°51' W 005°48'4 7.2
2017-Aug-16 04:30N 54°53' W 005°43'918.6
2017-Aug-16 04:00N 54°57' W 005°29'918.8
2017-Aug-16 03:30N 55°01' W 005°14'714.1
2017-Aug-16 03:00N 54°58' W 005°02'1 2.0
2017-Aug-16 02:30N 54°58' W 005°01'0 0.0
2017-Aug-16 02:00N 54°58' W 005°01'0 0.0
2017-Aug-16 01:30N 54°58' W 005°01'0 0.1
2017-Aug-16 01:00N 54°58' W 005°01'611.8
2017-Aug-16 00:30N 55°02' W 005°09'917.3
2017-Aug-16 00:00N 54°57' W 005°22'1019.2
2017-Aug-15 23:30N 54°54' W 005°37'713.6
2017-Aug-15 23:00N 54°51' W 005°48'0 0.1
2017-Aug-15 22:31N 54°51' W 005°48'0 0.0
2017-Aug-15 22:00N 54°51' W 005°48'0 0.0
2017-Aug-15 21:30N 54°51' W 005°48'0 0.0
2017-Aug-15 21:00N 54°51' W 005°48'4 9.0
2017-Aug-15 20:30N 54°53' W 005°42'816.1
2017-Aug-15 20:01N 54°58' W 005°31'815.6
2017-Aug-15 19:31N 55°02' W 005°18'916.1
2017-Aug-15 18:59N 54°60' W 005°04'3 5.4
2017-Aug-15 18:30N 54°58' W 005°01'0 0.0
2017-Aug-15 18:00N 54°58' W 005°01'0 0.0
2017-Aug-15 17:30N 54°58' W 005°01'5 9.3
2017-Aug-15 16:56N 55°02' W 005°07'818.1
2017-Aug-15 16:31N 54°58' W 005°19'918.1
2017-Aug-15 16:00N 54°54' W 005°33'917.2
2017-Aug-15 15:30N 54°51' W 005°48'0 0.9
2017-Aug-15 15:00N 54°51' W 005°48'0 0.0
2017-Aug-15 14:30N 54°51' W 005°48'5 9.6
2017-Aug-15 14:00N 54°53' W 005°41'816.9
2017-Aug-15 13:30N 54°57' W 005°28'816.9
2017-Aug-15 13:00N 55°00' W 005°14'713.3
2017-Aug-15 12:30N 54°59' W 005°03'2 2.5
2017-Aug-15 11:51N 54°58' W 005°01'0 0.0
2017-Aug-15 11:29N 54°58' W 005°01'5 9.0
2017-Aug-15 10:56N 55°02' W 005°06'716.8
2017-Aug-15 10:30N 54°59' W 005°18'917.2
2017-Aug-15 10:00N 54°55' W 005°32'918.0
2017-Aug-15 09:30N 54°52' W 005°47'1 2.8
2017-Aug-15 09:00N 54°51' W 005°48'0 0.0
2017-Aug-15 08:30N 54°51' W 005°48'4 8.7
2017-Aug-15 08:00N 54°53' W 005°42'917.7
2017-Aug-15 07:31N 54°57' W 005°28'917.7
2017-Aug-15 07:01N 55°01' W 005°14'714.6
2017-Aug-15 06:30N 54°58' W 005°02'1 1.9
2017-Aug-15 06:00N 54°58' W 005°01'0 0.0
2017-Aug-15 05:30N 54°58' W 005°01'0 0.0
2017-Aug-15 05:01N 54°58' W 005°01'510.8
2017-Aug-15 04:31N 55°02' W 005°07'816.5
2017-Aug-15 04:00N 54°58' W 005°20'817.1
2017-Aug-15 03:30N 54°54' W 005°33'917.5
2017-Aug-15 03:01N 54°51' W 005°48'1 1.0
2017-Aug-15 02:30N 54°51' W 005°48'0 0.0
2017-Aug-15 02:01N 54°51' W 005°48'0 0.0
2017-Aug-15 01:30N 54°51' W 005°48'0 0.0
2017-Aug-15 01:01N 54°51' W 005°48'5 9.3
2017-Aug-15 00:30N 54°53' W 005°41'918.9
2017-Aug-15 00:00N 54°57' W 005°26'1019.1
2017-Aug-14 23:30N 55°01' W 005°11'713.7
2017-Aug-14 23:00N 54°58' W 005°01'0 0.2
2017-Aug-14 22:18N 54°58' W 005°01'0 0.0
2017-Aug-14 21:57N 54°58' W 005°01'0 0.0
2017-Aug-14 21:24N 54°58' W 005°01'0 0.1
2017-Aug-14 21:00N 54°58' W 005°01'510.1
2017-Aug-14 20:30N 55°02' W 005°07'817.0
2017-Aug-14 20:00N 54°58' W 005°20'917.8
2017-Aug-14 19:30N 54°55' W 005°34'816.9
2017-Aug-14 19:00N 54°51' W 005°48'0 0.7
2017-Aug-14 18:30N 54°51' W 005°48'0 0.0
2017-Aug-14 18:00N 54°51' W 005°48'0 0.0
2017-Aug-14 17:30N 54°51' W 005°48'611.4
2017-Aug-14 17:00N 54°54' W 005°40'917.4
2017-Aug-14 16:31N 54°58' W 005°26'917.1
2017-Aug-14 16:00N 55°01' W 005°12'714.1
2017-Aug-14 15:30N 54°58' W 005°01'0 0.2
2017-Aug-14 15:00N 54°58' W 005°01'0 0.0
2017-Aug-14 14:30N 54°58' W 005°01'510.2
2017-Aug-14 14:00N 55°02' W 005°07'1019.9
2017-Aug-14 13:30N 54°58' W 005°23'1021.0
2017-Aug-14 13:00N 54°54' W 005°39'611.2
2017-Aug-14 12:30N 54°51' W 005°48'0 0.0
2017-Aug-14 12:00N 54°51' W 005°48'0 0.0
2017-Aug-14 11:30N 54°51' W 005°48'510.2
2017-Aug-14 11:00N 54°54' W 005°40'816.8
2017-Aug-14 10:30N 54°57' W 005°27'917.4
2017-Aug-14 10:00N 55°01' W 005°13'713.9
2017-Aug-14 09:30N 54°58' W 005°02'1 1.6
2017-Aug-14 09:00N 54°58' W 005°01'0 0.0
2017-Aug-14 08:30N 54°58' W 005°01'5 8.5
2017-Aug-14 07:53N 55°02' W 005°07'820.2
2017-Aug-14 07:30N 54°58' W 005°19'1020.3
2017-Aug-14 07:00N 54°54' W 005°36'812.6
2017-Aug-14 06:23N 54°51' W 005°48'0 0.0
2017-Aug-14 05:59N 54°51' W 005°48'0 0.0
2017-Aug-14 05:29N 54°51' W 005°48'0 0.0
2017-Aug-14 04:56N 54°51' W 005°48'511.3
2017-Aug-14 04:30N 54°54' W 005°41'918.7
2017-Aug-14 04:00N 54°59' W 005°27'918.6
2017-Aug-14 03:30N 55°01' W 005°12'714.3
2017-Aug-14 03:00N 54°58' W 005°01'0 0.1
2017-Aug-14 02:30N 54°58' W 005°01'0 0.0
2017-Aug-14 02:00N 54°58' W 005°01'0 0.0
2017-Aug-14 01:30N 54°58' W 005°01'0 0.0
2017-Aug-14 00:57N 54°58' W 005°01'0 0.0
2017-Aug-14 00:30N 54°58' W 005°01'0 0.1
2017-Aug-14 00:00N 54°58' W 005°01'611.7
2017-Aug-13 23:30N 55°02' W 005°09'918.0
2017-Aug-13 23:00N 54°57' W 005°22'1019.3
2017-Aug-13 22:30N 54°53' W 005°38'612.0
2017-Aug-13 21:59N 54°51' W 005°48'0 0.0
2017-Aug-13 21:30N 54°51' W 005°48'0 0.0
2017-Aug-13 21:00N 54°51' W 005°48'5 9.0
2017-Aug-13 20:30N 54°54' W 005°42'918.1
2017-Aug-13 19:59N 54°58' W 005°27'918.3
2017-Aug-13 19:30N 55°01' W 005°13'714.7
2017-Aug-13 19:00N 54°58' W 005°01'0 0.6
2017-Aug-13 18:31N 54°58' W 005°01'0 0.0
2017-Aug-13 18:01N 54°58' W 005°01'0 0.0
2017-Aug-13 17:31N 54°58' W 005°01'6 9.4
2017-Aug-13 16:54N 55°02' W 005°08'821.0
2017-Aug-13 16:30N 54°58' W 005°22'1020.1
2017-Aug-13 16:01N 54°54' W 005°37'713.6
2017-Aug-13 15:30N 54°51' W 005°48'0 0.0
2017-Aug-13 15:00N 54°51' W 005°48'0 0.0
2017-Aug-13 14:30N 54°51' W 005°48'3 6.3
2017-Aug-13 14:00N 54°53' W 005°44'918.7
2017-Aug-13 13:30N 54°57' W 005°29'1019.0
2017-Aug-13 13:00N 55°01' W 005°14'714.0
2017-Aug-13 12:31N 54°59' W 005°02'1 2.3
2017-Aug-13 12:00N 54°58' W 005°01'0 0.0
2017-Aug-13 11:30N 54°58' W 005°01'5 8.7
2017-Aug-13 10:56N 55°02' W 005°06'819.4
2017-Aug-13 10:30N 54°58' W 005°19'1121.6
2017-Aug-13 10:01N 54°54' W 005°37'714.0
2017-Aug-13 09:30N 54°51' W 005°48'0 0.0
2017-Aug-13 09:00N 54°51' W 005°48'0 0.0
2017-Aug-13 08:30N 54°51' W 005°48'3 6.1
2017-Aug-13 08:00N 54°53' W 005°44'918.5
2017-Aug-13 07:30N 54°57' W 005°30'918.1
2017-Aug-13 07:00N 55°01' W 005°15'714.9
2017-Aug-13 06:30N 54°59' W 005°03'2 3.0
2017-Aug-13 05:57N 54°58' W 005°01'0 0.0
2017-Aug-13 05:30N 54°58' W 005°01'0 0.0
2017-Aug-13 05:00N 54°58' W 005°01'0 0.0
2017-Aug-13 04:30N 54°58' W 005°01'0 0.0
2017-Aug-13 04:00N 54°58' W 005°01'0 0.0
2017-Aug-13 03:29N 54°58' W 005°01'0 0.0
2017-Aug-13 03:00N 54°58' W 005°01'0 0.0
2017-Aug-13 02:30N 54°58' W 005°01'0 0.0
2017-Aug-13 02:00N 54°58' W 005°01'0 0.0
2017-Aug-13 01:30N 54°58' W 005°01'0 0.0
2017-Aug-13 01:01N 54°58' W 005°01'0 0.0
2017-Aug-13 00:30N 54°58' W 005°01'0 0.0
2017-Aug-13 00:01N 54°58' W 005°01'0 0.0
2017-Aug-12 23:09N 54°58' W 005°01'0 0.0
2017-Aug-12 23:01N 54°58' W 005°01'0 0.0
2017-Aug-12 22:30N 54°58' W 005°01'0 0.0
2017-Aug-12 22:00N 54°58' W 005°01'0 0.0
2017-Aug-12 21:30N 54°58' W 005°01'0 0.0
2017-Aug-12 21:01N 54°58' W 005°01'510.7
2017-Aug-12 20:30N 55°01' W 005°08'1020.1
2017-Aug-12 20:00N 54°57' W 005°24'1121.0
2017-Aug-12 19:30N 54°53' W 005°41'5 9.6
2017-Aug-12 19:00N 54°51' W 005°48'0 0.0
2017-Aug-12 18:30N 54°51' W 005°48'0 0.0
2017-Aug-12 18:00N 54°51' W 005°48'0 0.0
2017-Aug-12 17:30N 54°51' W 005°48'2 4.4
2017-Aug-12 17:00N 54°53' W 005°45'1019.3
2017-Aug-12 16:30N 54°57' W 005°30'918.3
2017-Aug-12 16:01N 55°00' W 005°16'714.7
2017-Aug-12 15:30N 54°59' W 005°03'2 3.9
2017-Aug-12 15:00N 54°58' W 005°01'0 0.0
2017-Aug-12 14:30N 54°58' W 005°01'5 9.7
2017-Aug-12 13:59N 55°02' W 005°07'918.1
2017-Aug-12 13:30N 54°58' W 005°20'918.8
2017-Aug-12 13:00N 54°54' W 005°35'815.8
2017-Aug-12 12:30N 54°51' W 005°48'0 0.1
2017-Aug-12 12:00N 54°51' W 005°48'0 0.0
2017-Aug-12 11:30N 54°51' W 005°48'611.6
2017-Aug-12 11:00N 54°54' W 005°39'917.9
2017-Aug-12 10:30N 54°58' W 005°25'1018.6
2017-Aug-12 10:00N 55°01' W 005°10'613.1
2017-Aug-12 09:30N 54°58' W 005°01'0 0.0
2017-Aug-12 08:50N 54°58' W 005°01'0 0.1
2017-Aug-12 08:30N 54°58' W 005°01'5 9.6
2017-Aug-12 07:58N 55°02' W 005°07'817.3
2017-Aug-12 07:30N 54°58' W 005°20'917.8
2017-Aug-12 07:00N 54°54' W 005°33'916.8
2017-Aug-12 06:30N 54°51' W 005°48'0 0.7
2017-Aug-12 06:00N 54°51' W 005°48'0 0.0
2017-Aug-12 05:30N 54°51' W 005°48'0 0.0
2017-Aug-12 05:00N 54°51' W 005°48'611.2
2017-Aug-12 04:30N 54°54' W 005°40'1020.7
2017-Aug-12 04:00N 54°59' W 005°24'919.0
2017-Aug-12 03:30N 55°02' W 005°08'610.9
2017-Aug-12 03:00N 54°58' W 005°01'0 0.0
2017-Aug-12 02:31N 54°58' W 005°01'0 0.0
2017-Aug-12 02:00N 54°58' W 005°01'0 0.0
2017-Aug-12 01:31N 54°58' W 005°01'0 0.0
2017-Aug-12 01:00N 54°58' W 005°01'5 9.5
2017-Aug-12 00:28N 55°02' W 005°07'817.4
2017-Aug-12 00:00N 54°58' W 005°20'917.2
2017-Aug-11 23:30N 54°56' W 005°34'917.3
2017-Aug-11 23:00N 54°52' W 005°47'1 2.0
2017-Aug-11 22:30N 54°51' W 005°48'0 0.0
2017-Aug-11 22:00N 54°51' W 005°48'0 0.0
2017-Aug-11 21:30N 54°51' W 005°48'0 0.0
2017-Aug-11 21:00N 54°51' W 005°48'5 9.8
2017-Aug-11 20:30N 54°53' W 005°41'917.6
2017-Aug-11 20:00N 54°57' W 005°27'917.6
2017-Aug-11 19:30N 55°01' W 005°13'714.1
2017-Aug-11 19:01N 54°58' W 005°02'1 1.1
2017-Aug-11 18:30N 54°58' W 005°01'0 0.0
2017-Aug-11 18:00N 54°58' W 005°01'0 0.0
2017-Aug-11 17:30N 54°58' W 005°01'5 9.3
2017-Aug-11 16:57N 55°02' W 005°07'818.5
2017-Aug-11 16:30N 54°58' W 005°20'917.8
2017-Aug-11 16:00N 54°55' W 005°34'816.6
2017-Aug-11 15:30N 54°51' W 005°48'0 0.7
2017-Aug-11 15:00N 54°51' W 005°48'0 0.0
2017-Aug-11 14:30N 54°51' W 005°48'1615.6
2017-Aug-11 13:30N 54°58' W 005°24'1216.8
2017-Aug-11 12:47N 54°59' W 005°03'2 7.2
2017-Aug-11 12:31N 54°58' W 005°01'0 0.0
2017-Aug-11 12:01N 54°58' W 005°01'0 0.0
2017-Aug-11 11:28N 54°58' W 005°01'511.1
2017-Aug-11 11:00N 55°02' W 005°07'917.5
2017-Aug-11 10:30N 54°58' W 005°21'1019.5
2017-Aug-11 10:00N 54°54' W 005°36'714.8
2017-Aug-11 09:30N 54°51' W 005°48'0 0.0
2017-Aug-11 09:00N 54°51' W 005°48'0 0.0
2017-Aug-11 08:30N 54°51' W 005°48'612.2
2017-Aug-11 08:00N 54°54' W 005°39'918.1
2017-Aug-11 07:30N 54°58' W 005°25'918.5
2017-Aug-11 07:00N 55°02' W 005°10'610.2
2017-Aug-11 06:23N 54°58' W 005°01'0 0.0
2017-Aug-11 05:47N 54°58' W 005°01'0 0.0
2017-Aug-11 05:26N 54°58' W 005°01'0 0.0
2017-Aug-11 05:01N 54°58' W 005°01'510.4
2017-Aug-11 04:30N 55°02' W 005°07'917.9
2017-Aug-11 04:00N 54°58' W 005°21'918.9
2017-Aug-11 03:30N 54°53' W 005°35'815.1
2017-Aug-11 03:01N 54°51' W 005°48'0 0.3
2017-Aug-11 02:30N 54°51' W 005°48'0 0.0
2017-Aug-11 02:00N 54°51' W 005°48'0 0.0
2017-Aug-11 01:30N 54°51' W 005°48'0 0.0
2017-Aug-11 01:00N 54°51' W 005°48'510.1
2017-Aug-11 00:30N 54°54' W 005°41'918.6
2017-Aug-11 00:00N 54°58' W 005°26'918.4
2017-Aug-10 23:30N 55°02' W 005°11'713.5
2017-Aug-10 23:00N 54°58' W 005°02'0 0.7
2017-Aug-10 22:27N 54°58' W 005°01'0 0.0
2017-Aug-10 21:45N 54°58' W 005°01'0 0.0
2017-Aug-10 21:24N 54°58' W 005°01'0 0.0
2017-Aug-10 21:00N 54°58' W 005°01'5 9.7
2017-Aug-10 20:30N 55°02' W 005°06'917.6
2017-Aug-10 20:00N 54°58' W 005°20'918.9
2017-Aug-10 19:30N 54°55' W 005°35'816.1
2017-Aug-10 19:01N 54°51' W 005°48'0 0.3
2017-Aug-10 18:30N 54°51' W 005°48'0 0.0
2017-Aug-10 18:01N 54°51' W 005°48'0 0.0
2017-Aug-10 17:31N 54°51' W 005°48'510.1
2017-Aug-10 17:01N 54°54' W 005°41'918.8
2017-Aug-10 16:31N 54°58' W 005°26'917.8
2017-Aug-10 16:01N 55°01' W 005°11'713.6
2017-Aug-10 15:30N 54°58' W 005°01'0 0.0
2017-Aug-10 15:00N 54°58' W 005°01'0 0.0
2017-Aug-10 14:29N 54°58' W 005°01'612.4
2017-Aug-10 13:58N 55°01' W 005°10'1021.3
2017-Aug-10 13:30N 54°57' W 005°25'1020.2
2017-Aug-10 13:00N 54°53' W 005°41'4 8.3
2017-Aug-10 12:28N 54°51' W 005°48'0 0.0
2017-Aug-10 11:55N 54°51' W 005°48'0 0.0
2017-Aug-10 11:30N 54°51' W 005°48'611.3
2017-Aug-10 11:00N 54°53' W 005°39'917.8
2017-Aug-10 10:30N 54°57' W 005°25'1019.0
2017-Aug-10 10:00N 55°01' W 005°10'612.6
2017-Aug-10 09:30N 54°58' W 005°01'0 0.0
2017-Aug-10 08:59N 54°58' W 005°01'0 0.0
2017-Aug-10 08:30N 54°58' W 005°01'510.1
2017-Aug-10 08:00N 55°02' W 005°07'1019.9
2017-Aug-10 07:30N 54°57' W 005°23'1121.7
2017-Aug-10 07:00N 54°54' W 005°40'510.6
2017-Aug-10 06:30N 54°51' W 005°48'0 0.0
2017-Aug-10 06:00N 54°51' W 005°48'0 0.0
2017-Aug-10 05:30N 54°51' W 005°48'0 0.0
2017-Aug-10 05:00N 54°51' W 005°48'510.4
2017-Aug-10 04:29N 54°54' W 005°41'816.9
2017-Aug-10 04:00N 54°58' W 005°28'918.1
2017-Aug-10 03:30N 55°01' W 005°13'714.1
2017-Aug-10 03:00N 54°58' W 005°02'1 1.5
2017-Aug-10 02:29N 54°58' W 005°01'0 0.0
2017-Aug-10 01:59N 54°58' W 005°01'0 0.0
2017-Aug-10 01:23N 54°58' W 005°01'0 0.0
2017-Aug-10 00:59N 54°58' W 005°01'510.8
2017-Aug-10 00:30N 55°02' W 005°07'917.9
2017-Aug-10 00:00N 54°58' W 005°21'917.8
2017-Aug-09 23:30N 54°54' W 005°35'815.8
2017-Aug-09 23:01N 54°51' W 005°48'0 0.2
2017-Aug-09 22:31N 54°51' W 005°48'0 0.0
2017-Aug-09 22:01N 54°51' W 005°48'0 0.0
2017-Aug-09 21:31N 54°51' W 005°48'0 0.0
2017-Aug-09 21:01N 54°51' W 005°48'510.1
2017-Aug-09 20:30N 54°54' W 005°41'816.8
2017-Aug-09 20:00N 54°57' W 005°27'817.0
2017-Aug-09 19:30N 55°01' W 005°14'713.6
2017-Aug-09 19:01N 54°59' W 005°02'1 2.5
2017-Aug-09 18:28N 54°58' W 005°01'0 0.0
2017-Aug-09 17:49N 54°58' W 005°01'0 0.5
2017-Aug-09 17:30N 54°58' W 005°01'612.3
2017-Aug-09 17:00N 55°01' W 005°10'918.2
2017-Aug-09 16:30N 54°57' W 005°24'917.5
2017-Aug-09 16:00N 54°54' W 005°38'612.6
2017-Aug-09 15:30N 54°51' W 005°48'0 0.0
2017-Aug-09 14:49N 54°51' W 005°48'0 0.0
2017-Aug-09 14:29N 54°51' W 005°48'510.2
2017-Aug-09 14:00N 54°54' W 005°41'816.4
2017-Aug-09 13:30N 54°57' W 005°28'816.3
2017-Aug-09 13:00N 55°00' W 005°15'713.7
2017-Aug-09 12:30N 54°59' W 005°03'2 3.8
2017-Aug-09 12:01N 54°58' W 005°01'0 0.0
2017-Aug-09 11:30N 54°58' W 005°01'510.2
2017-Aug-09 10:59N 55°02' W 005°07'917.8
2017-Aug-09 10:27N 54°57' W 005°22'818.4
2017-Aug-09 10:00N 54°54' W 005°35'815.8
2017-Aug-09 09:30N 54°51' W 005°48'0 0.1
2017-Aug-09 08:59N 54°51' W 005°48'0 0.0
2017-Aug-09 08:30N 54°51' W 005°48'611.5
2017-Aug-09 08:00N 54°54' W 005°39'917.8
2017-Aug-09 07:30N 54°58' W 005°26'918.1
2017-Aug-09 07:00N 55°01' W 005°11'612.3
2017-Aug-09 06:30N 54°58' W 005°02'1 1.4
2017-Aug-09 05:59N 54°58' W 005°01'0 0.0
2017-Aug-09 05:29N 54°58' W 005°01'0 0.0
2017-Aug-09 05:00N 54°58' W 005°01'5 9.9
2017-Aug-09 04:29N 55°02' W 005°07'818.0
2017-Aug-09 04:00N 54°58' W 005°21'917.6
2017-Aug-09 03:30N 54°55' W 005°35'816.3
2017-Aug-09 03:00N 54°51' W 005°48'0 0.5
2017-Aug-09 02:30N 54°51' W 005°48'0 0.0
2017-Aug-09 02:00N 54°51' W 005°48'0 0.0
2017-Aug-09 01:30N 54°51' W 005°48'0 0.0
2017-Aug-09 01:00N 54°51' W 005°48'4 7.2
2017-Aug-09 00:30N 54°53' W 005°43'918.6
2017-Aug-09 00:00N 54°57' W 005°28'918.7
2017-Aug-08 23:30N 55°01' W 005°13'713.8
2017-Aug-08 23:01N 54°58' W 005°02'1 1.8
2017-Aug-08 22:31N 54°58' W 005°01'0 0.0
2017-Aug-08 22:01N 54°58' W 005°01'0 0.0
2017-Aug-08 21:30N 54°58' W 005°01'0 0.0
2017-Aug-08 21:00N 54°58' W 005°01'510.0
2017-Aug-08 20:30N 55°02' W 005°06'815.1
2017-Aug-08 20:01N 54°58' W 005°18'917.4
2017-Aug-08 19:30N 54°54' W 005°32'918.5
2017-Aug-08 19:00N 54°52' W 005°47'1 2.4
2017-Aug-08 18:30N 54°51' W 005°48'0 0.0
2017-Aug-08 18:00N 54°51' W 005°48'0 0.0
2017-Aug-08 17:30N 54°51' W 005°48'611.2
2017-Aug-08 17:00N 54°54' W 005°40'918.2
2017-Aug-08 16:30N 54°58' W 005°25'918.0
2017-Aug-08 16:00N 55°01' W 005°11'713.1
2017-Aug-08 15:30N 54°58' W 005°01'0 0.0
2017-Aug-08 15:00N 54°58' W 005°01'0 0.0
2017-Aug-08 14:30N 54°58' W 005°01'511.0
2017-Aug-08 14:00N 55°02' W 005°08'918.9
2017-Aug-08 13:30N 54°58' W 005°23'917.6
2017-Aug-08 13:01N 54°54' W 005°37'714.2
2017-Aug-08 12:31N 54°51' W 005°48'0 0.1
2017-Aug-08 11:59N 54°51' W 005°48'0 0.0
2017-Aug-08 11:30N 54°51' W 005°48'510.3
2017-Aug-08 11:00N 54°54' W 005°40'  
Track history (hours):
 
Tides and Currents Weather Stations Pressure Air Temp Water Temp Dewpoint Dewpoint Depression Visibility Wind Speed Wind Dir Waves Ship Positions

European Causeway

Operator: P & O Irish Sea

Last reported at 2017-Aug-18 10:30 UTC. Time now 2017-Aug-18 10:51 UTC.
Position N 54°59' W 005°23'.

Length 165 m; draft 5.5 m.

Type: Ship (hazmat cat A). MMSI: 311027000.

Date/timePositionNaut miles runAvg speedWind from/ knotsBaromVisibWave heightAir tempDewpointWater temp
2017-Aug-18 10:30N 54°59' W 005°23'1019.4
2017-Aug-18 10:00N 55°02' W 005°07'510.8
2017-Aug-18 09:30N 54°58' W 005°01'0 0.0
2017-Aug-18 09:00N 54°58' W 005°01'0 0.0
2017-Aug-18 08:30N 54°58' W 005°01'510.1
2017-Aug-18 08:00N 55°02' W 005°07'919.0
2017-Aug-18 07:30N 54°58' W 005°22'1019.3
2017-Aug-18 07:00N 54°54' W 005°37'714.0
2017-Aug-18 06:30N 54°51' W 005°48'0 0.0
2017-Aug-18 06:00N 54°51' W 005°48'0 0.0
2017-Aug-18 05:30N 54°51' W 005°48'0 0.7
2017-Aug-18 05:00N 54°51' W 005°48'816.9
2017-Aug-18 04:31N 54°55' W 005°35'1020.1
2017-Aug-18 04:00N 54°59' W 005°19'915.5
2017-Aug-18 03:26N 54°59' W 005°03'2 4.1
2017-Aug-18 02:54N 54°58' W 005°01'0 0.0
2017-Aug-18 02:24N 54°58' W 005°01'0 0.0
2017-Aug-18 01:54N 54°58' W 005°01'0 0.0
2017-Aug-18 01:24N 54°58' W 005°01'0 0.1
2017-Aug-18 01:00N 54°58' W 005°01'610.3
2017-Aug-18 00:28N 55°02' W 005°08'919.2
2017-Aug-18 00:00N 54°58' W 005°22'918.9
2017-Aug-17 23:31N 54°54' W 005°37'714.1
2017-Aug-17 23:01N 54°51' W 005°48'0 0.1
2017-Aug-17 22:31N 54°51' W 005°48'0 0.0
2017-Aug-17 22:00N 54°51' W 005°48'0 0.0
2017-Aug-17 21:30N 54°51' W 005°48'3 5.8
2017-Aug-17 21:00N 54°53' W 005°44'1121.5
2017-Aug-17 20:30N 54°58' W 005°28'1121.8
2017-Aug-17 20:00N 55°02' W 005°10'714.1
2017-Aug-17 19:31N 54°58' W 005°01'0 0.0
2017-Aug-17 19:01N 54°58' W 005°01'0 0.0
2017-Aug-17 18:30N 54°58' W 005°01'0 0.2
2017-Aug-17 18:01N 54°58' W 005°01'713.0
2017-Aug-17 17:30N 55°01' W 005°11'1020.5
2017-Aug-17 17:01N 54°56' W 005°26'1121.3
2017-Aug-17 16:30N 54°53' W 005°44'3 6.0
2017-Aug-17 16:00N 54°51' W 005°48'0 0.0
2017-Aug-17 15:30N 54°51' W 005°48'3 5.3
2017-Aug-17 15:00N 54°53' W 005°44'1020.1
2017-Aug-17 14:30N 54°57' W 005°29'1020.6
2017-Aug-17 14:00N 55°01' W 005°12'612.9
2017-Aug-17 13:30N 54°59' W 005°02'1 2.3
2017-Aug-17 13:00N 54°58' W 005°01'0 0.0
2017-Aug-17 12:30N 54°58' W 005°01'0 0.0
2017-Aug-17 12:00N 54°58' W 005°01'0 0.0
2017-Aug-17 11:30N 54°58' W 005°01'5 9.4
2017-Aug-17 10:58N 55°02' W 005°07'919.1
2017-Aug-17 10:31N 54°58' W 005°21'1019.1
2017-Aug-17 10:01N 54°54' W 005°36'815.3
2017-Aug-17 09:31N 54°51' W 005°48'0 0.3
2017-Aug-17 09:00N 54°51' W 005°48'0 0.0
2017-Aug-17 08:30N 54°51' W 005°48'5 9.2
2017-Aug-17 08:00N 54°54' W 005°41'918.4
2017-Aug-17 07:30N 54°58' W 005°27'918.1
2017-Aug-17 07:00N 55°01' W 005°13'714.4
2017-Aug-17 06:31N 54°58' W 005°02'0 0.6
2017-Aug-17 05:50N 54°58' W 005°01'0 0.0
2017-Aug-17 05:26N 54°58' W 005°01'0 0.0
2017-Aug-17 04:59N 54°58' W 005°01'510.0
2017-Aug-17 04:28N 55°02' W 005°07'817.7
2017-Aug-17 04:01N 54°58' W 005°20'918.8
2017-Aug-17 03:31N 54°55' W 005°35'812.9
2017-Aug-17 02:52N 54°51' W 005°48'0 0.0
2017-Aug-17 02:28N 54°51' W 005°48'0 0.0
2017-Aug-17 01:58N 54°51' W 005°48'0 0.0
2017-Aug-17 01:28N 54°51' W 005°48'0 0.1
2017-Aug-17 01:00N 54°51' W 005°48'714.6
2017-Aug-17 00:31N 54°55' W 005°37'1020.5
2017-Aug-17 00:00N 54°59' W 005°21'1018.1
2017-Aug-16 23:29N 55°01' W 005°04'4 7.0
2017-Aug-16 22:58N 54°58' W 005°01'0 0.0
2017-Aug-16 22:25N 54°58' W 005°01'0 0.0
2017-Aug-16 21:58N 54°58' W 005°01'0 0.0
2017-Aug-16 21:28N 54°58' W 005°01'0 0.0
2017-Aug-16 21:00N 54°58' W 005°01'510.6
2017-Aug-16 20:30N 55°02' W 005°07'918.6
2017-Aug-16 20:00N 54°58' W 005°22'1020.3
2017-Aug-16 19:31N 54°54' W 005°37'713.3
2017-Aug-16 19:00N 54°51' W 005°48'0 0.0
2017-Aug-16 18:30N 54°51' W 005°48'0 0.0
2017-Aug-16 18:00N 54°51' W 005°48'611.6
2017-Aug-16 17:31N 54°54' W 005°39'1020.0
2017-Aug-16 17:00N 54°58' W 005°24'1019.6
2017-Aug-16 16:30N 55°02' W 005°08'611.8
2017-Aug-16 16:00N 54°58' W 005°01'0 0.0
2017-Aug-16 15:30N 54°58' W 005°01'0 0.0
2017-Aug-16 15:00N 54°58' W 005°01'611.6
2017-Aug-16 14:31N 55°02' W 005°08'1020.0
2017-Aug-16 14:01N 54°57' W 005°24'1121.1
2017-Aug-16 13:30N 54°53' W 005°41'5 8.0
2017-Aug-16 12:56N 54°51' W 005°48'0 0.0
2017-Aug-16 12:29N 54°51' W 005°48'0 0.0
2017-Aug-16 12:00N 54°51' W 005°48'510.0
2017-Aug-16 11:31N 54°54' W 005°41'1019.8
2017-Aug-16 11:00N 54°59' W 005°26'1020.4
2017-Aug-16 10:30N 55°02' W 005°09'612.2
2017-Aug-16 10:00N 54°58' W 005°01'0 0.0
2017-Aug-16 09:29N 54°58' W 005°01'0 0.0
2017-Aug-16 08:50N 54°58' W 005°01'0 0.0
2017-Aug-16 08:26N 54°58' W 005°01'511.0
2017-Aug-16 07:57N 55°02' W 005°07'818.3
2017-Aug-16 07:30N 54°58' W 005°20'917.5
2017-Aug-16 07:00N 54°55' W 005°34'816.9
2017-Aug-16 06:30N 54°51' W 005°48'1 1.1
2017-Aug-16 06:01N 54°51' W 005°48'0 0.0
2017-Aug-16 05:31N 54°51' W 005°48'0 0.0
2017-Aug-16 05:01N 54°51' W 005°48'4 7.2
2017-Aug-16 04:30N 54°53' W 005°43'918.6
2017-Aug-16 04:00N 54°57' W 005°29'918.8
2017-Aug-16 03:30N 55°01' W 005°14'714.1
2017-Aug-16 03:00N 54°58' W 005°02'1 2.0
2017-Aug-16 02:30N 54°58' W 005°01'0 0.0
2017-Aug-16 02:00N 54°58' W 005°01'0 0.0
2017-Aug-16 01:30N 54°58' W 005°01'0 0.1
2017-Aug-16 01:00N 54°58' W 005°01'611.8
2017-Aug-16 00:30N 55°02' W 005°09'917.3
2017-Aug-16 00:00N 54°57' W 005°22'1019.2
2017-Aug-15 23:30N 54°54' W 005°37'713.6
2017-Aug-15 23:00N 54°51' W 005°48'0 0.1
2017-Aug-15 22:31N 54°51' W 005°48'0 0.0
2017-Aug-15 22:00N 54°51' W 005°48'0 0.0
2017-Aug-15 21:30N 54°51' W 005°48'0 0.0
2017-Aug-15 21:00N 54°51' W 005°48'4 9.0
2017-Aug-15 20:30N 54°53' W 005°42'816.1
2017-Aug-15 20:01N 54°58' W 005°31'815.6
2017-Aug-15 19:31N 55°02' W 005°18'916.1
2017-Aug-15 18:59N 54°60' W 005°04'3 5.4
2017-Aug-15 18:30N 54°58' W 005°01'0 0.0
2017-Aug-15 18:00N 54°58' W 005°01'0 0.0
2017-Aug-15 17:30N 54°58' W 005°01'5 9.3
2017-Aug-15 16:56N 55°02' W 005°07'818.1
2017-Aug-15 16:31N 54°58' W 005°19'918.1
2017-Aug-15 16:00N 54°54' W 005°33'917.2
2017-Aug-15 15:30N 54°51' W 005°48'0 0.9
2017-Aug-15 15:00N 54°51' W 005°48'0 0.0
2017-Aug-15 14:30N 54°51' W 005°48'5 9.6
2017-Aug-15 14:00N 54°53' W 005°41'816.9
2017-Aug-15 13:30N 54°57' W 005°28'816.9
2017-Aug-15 13:00N 55°00' W 005°14'713.3
2017-Aug-15 12:30N 54°59' W 005°03'2 2.5
2017-Aug-15 11:51N 54°58' W 005°01'0 0.0
2017-Aug-15 11:29N 54°58' W 005°01'5 9.0
2017-Aug-15 10:56N 55°02' W 005°06'716.8
2017-Aug-15 10:30N 54°59' W 005°18'917.2
2017-Aug-15 10:00N 54°55' W 005°32'918.0
2017-Aug-15 09:30N 54°52' W 005°47'1 2.8
2017-Aug-15 09:00N 54°51' W 005°48'0 0.0
2017-Aug-15 08:30N 54°51' W 005°48'4 8.7
2017-Aug-15 08:00N 54°53' W 005°42'917.7
2017-Aug-15 07:31N 54°57' W 005°28'917.7
2017-Aug-15 07:01N 55°01' W 005°14'714.6
2017-Aug-15 06:30N 54°58' W 005°02'1 1.9
2017-Aug-15 06:00N 54°58' W 005°01'0 0.0
2017-Aug-15 05:30N 54°58' W 005°01'0 0.0
2017-Aug-15 05:01N 54°58' W 005°01'510.8
2017-Aug-15 04:31N 55°02' W 005°07'816.5
2017-Aug-15 04:00N 54°58' W 005°20'817.1
2017-Aug-15 03:30N 54°54' W 005°33'917.5
2017-Aug-15 03:01N 54°51' W 005°48'1 1.0
2017-Aug-15 02:30N 54°51' W 005°48'0 0.0
2017-Aug-15 02:01N 54°51' W 005°48'0 0.0
2017-Aug-15 01:30N 54°51' W 005°48'0 0.0
2017-Aug-15 01:01N 54°51' W 005°48'5 9.3
2017-Aug-15 00:30N 54°53' W 005°41'918.9
2017-Aug-15 00:00N 54°57' W 005°26'1019.1
2017-Aug-14 23:30N 55°01' W 005°11'713.7
2017-Aug-14 23:00N 54°58' W 005°01'0 0.2
2017-Aug-14 22:18N 54°58' W 005°01'0 0.0
2017-Aug-14 21:57N 54°58' W 005°01'0 0.0
2017-Aug-14 21:24N 54°58' W 005°01'0 0.1
2017-Aug-14 21:00N 54°58' W 005°01'510.1
2017-Aug-14 20:30N 55°02' W 005°07'817.0
2017-Aug-14 20:00N 54°58' W 005°20'917.8
2017-Aug-14 19:30N 54°55' W 005°34'816.9
2017-Aug-14 19:00N 54°51' W 005°48'0 0.7
2017-Aug-14 18:30N 54°51' W 005°48'0 0.0
2017-Aug-14 18:00N 54°51' W 005°48'0 0.0
2017-Aug-14 17:30N 54°51' W 005°48'611.4
2017-Aug-14 17:00N 54°54' W 005°40'917.4
2017-Aug-14 16:31N 54°58' W 005°26'917.1
2017-Aug-14 16:00N 55°01' W 005°12'714.1
2017-Aug-14 15:30N 54°58' W 005°01'0 0.2
2017-Aug-14 15:00N 54°58' W 005°01'0 0.0
2017-Aug-14 14:30N 54°58' W 005°01'510.2
2017-Aug-14 14:00N 55°02' W 005°07'1019.9
2017-Aug-14 13:30N 54°58' W 005°23'1021.0
2017-Aug-14 13:00N 54°54' W 005°39'611.2
2017-Aug-14 12:30N 54°51' W 005°48'0 0.0
2017-Aug-14 12:00N 54°51' W 005°48'0 0.0
2017-Aug-14 11:30N 54°51' W 005°48'510.2
2017-Aug-14 11:00N 54°54' W 005°40'816.8
2017-Aug-14 10:30N 54°57' W 005°27'917.4
2017-Aug-14 10:00N 55°01' W 005°13'713.9
2017-Aug-14 09:30N 54°58' W 005°02'1 1.6
2017-Aug-14 09:00N 54°58' W 005°01'0 0.0
2017-Aug-14 08:30N 54°58' W 005°01'5 8.5
2017-Aug-14 07:53N 55°02' W 005°07'820.2
2017-Aug-14 07:30N 54°58' W 005°19'1020.3
2017-Aug-14 07:00N 54°54' W 005°36'812.6
2017-Aug-14 06:23N 54°51' W 005°48'0 0.0
2017-Aug-14 05:59N 54°51' W 005°48'0 0.0
2017-Aug-14 05:29N 54°51' W 005°48'0 0.0
2017-Aug-14 04:56N 54°51' W 005°48'511.3
2017-Aug-14 04:30N 54°54' W 005°41'918.7
2017-Aug-14 04:00N 54°59' W 005°27'918.6
2017-Aug-14 03:30N 55°01' W 005°12'714.3
2017-Aug-14 03:00N 54°58' W 005°01'0 0.1
2017-Aug-14 02:30N 54°58' W 005°01'0 0.0
2017-Aug-14 02:00N 54°58' W 005°01'0 0.0
2017-Aug-14 01:30N 54°58' W 005°01'0 0.0
2017-Aug-14 00:57N 54°58' W 005°01'0 0.0
2017-Aug-14 00:30N 54°58' W 005°01'0 0.1
2017-Aug-14 00:00N 54°58' W 005°01'611.7
2017-Aug-13 23:30N 55°02' W 005°09'918.0
2017-Aug-13 23:00N 54°57' W 005°22'1019.3
2017-Aug-13 22:30N 54°53' W 005°38'612.0
2017-Aug-13 21:59N 54°51' W 005°48'0 0.0
2017-Aug-13 21:30N 54°51' W 005°48'0 0.0
2017-Aug-13 21:00N 54°51' W 005°48'5 9.0
2017-Aug-13 20:30N 54°54' W 005°42'918.1
2017-Aug-13 19:59N 54°58' W 005°27'918.3
2017-Aug-13 19:30N 55°01' W 005°13'714.7
2017-Aug-13 19:00N 54°58' W 005°01'0 0.6
2017-Aug-13 18:31N 54°58' W 005°01'0 0.0
2017-Aug-13 18:01N 54°58' W 005°01'0 0.0
2017-Aug-13 17:31N 54°58' W 005°01'6 9.4
2017-Aug-13 16:54N 55°02' W 005°08'821.0
2017-Aug-13 16:30N 54°58' W 005°22'1020.1
2017-Aug-13 16:01N 54°54' W 005°37'713.6
2017-Aug-13 15:30N 54°51' W 005°48'0 0.0
2017-Aug-13 15:00N 54°51' W 005°48'0 0.0
2017-Aug-13 14:30N 54°51' W 005°48'3 6.3
2017-Aug-13 14:00N 54°53' W 005°44'918.7
2017-Aug-13 13:30N 54°57' W 005°29'1019.0
2017-Aug-13 13:00N 55°01' W 005°14'714.0
2017-Aug-13 12:31N 54°59' W 005°02'1 2.3
2017-Aug-13 12:00N 54°58' W 005°01'0 0.0
2017-Aug-13 11:30N 54°58' W 005°01'5 8.7
2017-Aug-13 10:56N 55°02' W 005°06'819.4
2017-Aug-13 10:30N 54°58' W 005°19'1121.6
2017-Aug-13 10:01N 54°54' W 005°37'714.0
2017-Aug-13 09:30N 54°51' W 005°48'0 0.0
2017-Aug-13 09:00N 54°51' W 005°48'0 0.0
2017-Aug-13 08:30N 54°51' W 005°48'3 6.1
2017-Aug-13 08:00N 54°53' W 005°44'918.5
2017-Aug-13 07:30N 54°57' W 005°30'918.1
2017-Aug-13 07:00N 55°01' W 005°15'714.9
2017-Aug-13 06:30N 54°59' W 005°03'2 3.0
2017-Aug-13 05:57N 54°58' W 005°01'0 0.0
2017-Aug-13 05:30N 54°58' W 005°01'0 0.0
2017-Aug-13 05:00N 54°58' W 005°01'0 0.0
2017-Aug-13 04:30N 54°58' W 005°01'0 0.0
2017-Aug-13 04:00N 54°58' W 005°01'0 0.0
2017-Aug-13 03:29N 54°58' W 005°01'0 0.0
2017-Aug-13 03:00N 54°58' W 005°01'0 0.0
2017-Aug-13 02:30N 54°58' W 005°01'0 0.0
2017-Aug-13 02:00N 54°58' W 005°01'0 0.0
2017-Aug-13 01:30N 54°58' W 005°01'0 0.0
2017-Aug-13 01:01N 54°58' W 005°01'0 0.0
2017-Aug-13 00:30N 54°58' W 005°01'0 0.0
2017-Aug-13 00:01N 54°58' W 005°01'0 0.0
2017-Aug-12 23:09N 54°58' W 005°01'0 0.0
2017-Aug-12 23:01N 54°58' W 005°01'0 0.0
2017-Aug-12 22:30N 54°58' W 005°01'0 0.0
2017-Aug-12 22:00N 54°58' W 005°01'0 0.0
2017-Aug-12 21:30N 54°58' W 005°01'0 0.0
2017-Aug-12 21:01N 54°58' W 005°01'510.7
2017-Aug-12 20:30N 55°01' W 005°08'1020.1
2017-Aug-12 20:00N 54°57' W 005°24'1121.0
2017-Aug-12 19:30N 54°53' W 005°41'5 9.6
2017-Aug-12 19:00N 54°51' W 005°48'0 0.0
2017-Aug-12 18:30N 54°51' W 005°48'0 0.0
2017-Aug-12 18:00N 54°51' W 005°48'0 0.0
2017-Aug-12 17:30N 54°51' W 005°48'2 4.4
2017-Aug-12 17:00N 54°53' W 005°45'1019.3
2017-Aug-12 16:30N 54°57' W 005°30'918.3
2017-Aug-12 16:01N 55°00' W 005°16'714.7
2017-Aug-12 15:30N 54°59' W 005°03'2 3.9
2017-Aug-12 15:00N 54°58' W 005°01'0 0.0
2017-Aug-12 14:30N 54°58' W 005°01'5 9.7
2017-Aug-12 13:59N 55°02' W 005°07'918.1
2017-Aug-12 13:30N 54°58' W 005°20'918.8
2017-Aug-12 13:00N 54°54' W 005°35'815.8
2017-Aug-12 12:30N 54°51' W 005°48'0 0.1
2017-Aug-12 12:00N 54°51' W 005°48'0 0.0
2017-Aug-12 11:30N 54°51' W 005°48'611.6
2017-Aug-12 11:00N 54°54' W 005°39'917.9
2017-Aug-12 10:30N 54°58' W 005°25'1018.6
2017-Aug-12 10:00N 55°01' W 005°10'613.1
2017-Aug-12 09:30N 54°58' W 005°01'0 0.0
2017-Aug-12 08:50N 54°58' W 005°01'0 0.1
2017-Aug-12 08:30N 54°58' W 005°01'5 9.6
2017-Aug-12 07:58N 55°02' W 005°07'817.3
2017-Aug-12 07:30N 54°58' W 005°20'917.8
2017-Aug-12 07:00N 54°54' W 005°33'916.8
2017-Aug-12 06:30N 54°51' W 005°48'0 0.7
2017-Aug-12 06:00N 54°51' W 005°48'0 0.0
2017-Aug-12 05:30N 54°51' W 005°48'0 0.0
2017-Aug-12 05:00N 54°51' W 005°48'611.2
2017-Aug-12 04:30N 54°54' W 005°40'1020.7
2017-Aug-12 04:00N 54°59' W 005°24'919.0
2017-Aug-12 03:30N 55°02' W 005°08'610.9
2017-Aug-12 03:00N 54°58' W 005°01'0 0.0
2017-Aug-12 02:31N 54°58' W 005°01'0 0.0
2017-Aug-12 02:00N 54°58' W 005°01'0 0.0
2017-Aug-12 01:31N 54°58' W 005°01'0 0.0
2017-Aug-12 01:00N 54°58' W 005°01'5 9.5
2017-Aug-12 00:28N 55°02' W 005°07'817.4
2017-Aug-12 00:00N 54°58' W 005°20'917.2
2017-Aug-11 23:30N 54°56' W 005°34'917.3
2017-Aug-11 23:00N 54°52' W 005°47'1 2.0
2017-Aug-11 22:30N 54°51' W 005°48'0 0.0
2017-Aug-11 22:00N 54°51' W 005°48'0 0.0
2017-Aug-11 21:30N 54°51' W 005°48'0 0.0
2017-Aug-11 21:00N 54°51' W 005°48'5 9.8
2017-Aug-11 20:30N 54°53' W 005°41'917.6
2017-Aug-11 20:00N 54°57' W 005°27'917.6
2017-Aug-11 19:30N 55°01' W 005°13'714.1
2017-Aug-11 19:01N 54°58' W 005°02'1 1.1
2017-Aug-11 18:30N 54°58' W 005°01'0 0.0
2017-Aug-11 18:00N 54°58' W 005°01'0 0.0
2017-Aug-11 17:30N 54°58' W 005°01'5 9.3
2017-Aug-11 16:57N 55°02' W 005°07'818.5
2017-Aug-11 16:30N 54°58' W 005°20'917.8
2017-Aug-11 16:00N 54°55' W 005°34'816.6
2017-Aug-11 15:30N 54°51' W 005°48'0 0.7
2017-Aug-11 15:00N 54°51' W 005°48'0 0.0
2017-Aug-11 14:30N 54°51' W 005°48'1615.6
2017-Aug-11 13:30N 54°58' W 005°24'1216.8
2017-Aug-11 12:47N 54°59' W 005°03'2 7.2
2017-Aug-11 12:31N 54°58' W 005°01'0 0.0
2017-Aug-11 12:01N 54°58' W 005°01'0 0.0
2017-Aug-11 11:28N 54°58' W 005°01'511.1
2017-Aug-11 11:00N 55°02' W 005°07'917.5
2017-Aug-11 10:30N 54°58' W 005°21'1019.5
2017-Aug-11 10:00N 54°54' W 005°36'714.8
2017-Aug-11 09:30N 54°51' W 005°48'0 0.0
2017-Aug-11 09:00N 54°51' W 005°48'0 0.0
2017-Aug-11 08:30N 54°51' W 005°48'612.2
2017-Aug-11 08:00N 54°54' W 005°39'918.1
2017-Aug-11 07:30N 54°58' W 005°25'918.5
2017-Aug-11 07:00N 55°02' W 005°10'610.2
2017-Aug-11 06:23N 54°58' W 005°01'0 0.0
2017-Aug-11 05:47N 54°58' W 005°01'0 0.0
2017-Aug-11 05:26N 54°58' W 005°01'0 0.0
2017-Aug-11 05:01N 54°58' W 005°01'510.4
2017-Aug-11 04:30N 55°02' W 005°07'917.9
2017-Aug-11 04:00N 54°58' W 005°21'918.9
2017-Aug-11 03:30N 54°53' W 005°35'815.1
2017-Aug-11 03:01N 54°51' W 005°48'0 0.3
2017-Aug-11 02:30N 54°51' W 005°48'0 0.0
2017-Aug-11 02:00N 54°51' W 005°48'0 0.0
2017-Aug-11 01:30N 54°51' W 005°48'0 0.0
2017-Aug-11 01:00N 54°51' W 005°48'510.1
2017-Aug-11 00:30N 54°54' W 005°41'918.6
2017-Aug-11 00:00N 54°58' W 005°26'918.4
2017-Aug-10 23:30N 55°02' W 005°11'713.5
2017-Aug-10 23:00N 54°58' W 005°02'0 0.7
2017-Aug-10 22:27N 54°58' W 005°01'0 0.0
2017-Aug-10 21:45N 54°58' W 005°01'0 0.0
2017-Aug-10 21:24N 54°58' W 005°01'0 0.0
2017-Aug-10 21:00N 54°58' W 005°01'5 9.7
2017-Aug-10 20:30N 55°02' W 005°06'917.6
2017-Aug-10 20:00N 54°58' W 005°20'918.9
2017-Aug-10 19:30N 54°55' W 005°35'816.1
2017-Aug-10 19:01N 54°51' W 005°48'0 0.3
2017-Aug-10 18:30N 54°51' W 005°48'0 0.0
2017-Aug-10 18:01N 54°51' W 005°48'0 0.0
2017-Aug-10 17:31N 54°51' W 005°48'510.1
2017-Aug-10 17:01N 54°54' W 005°41'918.8
2017-Aug-10 16:31N 54°58' W 005°26'917.8
2017-Aug-10 16:01N 55°01' W 005°11'713.6
2017-Aug-10 15:30N 54°58' W 005°01'0 0.0
2017-Aug-10 15:00N 54°58' W 005°01'0 0.0
2017-Aug-10 14:29N 54°58' W 005°01'612.4
2017-Aug-10 13:58N 55°01' W 005°10'1021.3
2017-Aug-10 13:30N 54°57' W 005°25'1020.2
2017-Aug-10 13:00N 54°53' W 005°41'4 8.3
2017-Aug-10 12:28N 54°51' W 005°48'0 0.0
2017-Aug-10 11:55N 54°51' W 005°48'0 0.0
2017-Aug-10 11:30N 54°51' W 005°48'611.3
2017-Aug-10 11:00N 54°53' W 005°39'917.8
2017-Aug-10 10:30N 54°57' W 005°25'1019.0
2017-Aug-10 10:00N 55°01' W 005°10'612.6
2017-Aug-10 09:30N 54°58' W 005°01'0 0.0
2017-Aug-10 08:59N 54°58' W 005°01'0 0.0
2017-Aug-10 08:30N 54°58' W 005°01'510.1
2017-Aug-10 08:00N 55°02' W 005°07'1019.9
2017-Aug-10 07:30N 54°57' W 005°23'1121.7
2017-Aug-10 07:00N 54°54' W 005°40'510.6
2017-Aug-10 06:30N 54°51' W 005°48'0 0.0
2017-Aug-10 06:00N 54°51' W 005°48'0 0.0
2017-Aug-10 05:30N 54°51' W 005°48'0 0.0
2017-Aug-10 05:00N 54°51' W 005°48'510.4
2017-Aug-10 04:29N 54°54' W 005°41'816.9
2017-Aug-10 04:00N 54°58' W 005°28'918.1
2017-Aug-10 03:30N 55°01' W 005°13'714.1
2017-Aug-10 03:00N 54°58' W 005°02'1 1.5
2017-Aug-10 02:29N 54°58' W 005°01'0 0.0
2017-Aug-10 01:59N 54°58' W 005°01'0 0.0
2017-Aug-10 01:23N 54°58' W 005°01'0 0.0
2017-Aug-10 00:59N 54°58' W 005°01'510.8
2017-Aug-10 00:30N 55°02' W 005°07'917.9
2017-Aug-10 00:00N 54°58' W 005°21'917.8
2017-Aug-09 23:30N 54°54' W 005°35'815.8
2017-Aug-09 23:01N 54°51' W 005°48'0 0.2
2017-Aug-09 22:31N 54°51' W 005°48'0 0.0
2017-Aug-09 22:01N 54°51' W 005°48'0 0.0
2017-Aug-09 21:31N 54°51' W 005°48'0 0.0
2017-Aug-09 21:01N 54°51' W 005°48'510.1
2017-Aug-09 20:30N 54°54' W 005°41'816.8
2017-Aug-09 20:00N 54°57' W 005°27'817.0
2017-Aug-09 19:30N 55°01' W 005°14'713.6
2017-Aug-09 19:01N 54°59' W 005°02'1 2.5
2017-Aug-09 18:28N 54°58' W 005°01'0 0.0
2017-Aug-09 17:49N 54°58' W 005°01'0 0.5
2017-Aug-09 17:30N 54°58' W 005°01'612.3
2017-Aug-09 17:00N 55°01' W 005°10'918.2
2017-Aug-09 16:30N 54°57' W 005°24'917.5
2017-Aug-09 16:00N 54°54' W 005°38'612.6
2017-Aug-09 15:30N 54°51' W 005°48'0 0.0
2017-Aug-09 14:49N 54°51' W 005°48'0 0.0
2017-Aug-09 14:29N 54°51' W 005°48'510.2
2017-Aug-09 14:00N 54°54' W 005°41'816.4
2017-Aug-09 13:30N 54°57' W 005°28'816.3
2017-Aug-09 13:00N 55°00' W 005°15'713.7
2017-Aug-09 12:30N 54°59' W 005°03'2 3.8
2017-Aug-09 12:01N 54°58' W 005°01'0 0.0
2017-Aug-09 11:30N 54°58' W 005°01'510.2
2017-Aug-09 10:59N 55°02' W 005°07'917.8
2017-Aug-09 10:27N 54°57' W 005°22'818.4
2017-Aug-09 10:00N 54°54' W 005°35'815.8
2017-Aug-09 09:30N 54°51' W 005°48'0 0.1
2017-Aug-09 08:59N 54°51' W 005°48'0 0.0
2017-Aug-09 08:30N 54°51' W 005°48'611.5
2017-Aug-09 08:00N 54°54' W 005°39'917.8
2017-Aug-09 07:30N 54°58' W 005°26'918.1
2017-Aug-09 07:00N 55°01' W 005°11'612.3
2017-Aug-09 06:30N 54°58' W 005°02'1 1.4
2017-Aug-09 05:59N 54°58' W 005°01'0 0.0
2017-Aug-09 05:29N 54°58' W 005°01'0 0.0
2017-Aug-09 05:00N 54°58' W 005°01'5 9.9
2017-Aug-09 04:29N 55°02' W 005°07'818.0
2017-Aug-09 04:00N 54°58' W 005°21'917.6
2017-Aug-09 03:30N 54°55' W 005°35'816.3
2017-Aug-09 03:00N 54°51' W 005°48'0 0.5
2017-Aug-09 02:30N 54°51' W 005°48'0 0.0
2017-Aug-09 02:00N 54°51' W 005°48'0 0.0
2017-Aug-09 01:30N 54°51' W 005°48'0 0.0
2017-Aug-09 01:00N 54°51' W 005°48'4 7.2
2017-Aug-09 00:30N 54°53' W 005°43'918.6
2017-Aug-09 00:00N 54°57' W 005°28'918.7
2017-Aug-08 23:30N 55°01' W 005°13'713.8
2017-Aug-08 23:01N 54°58' W 005°02'1 1.8
2017-Aug-08 22:31N 54°58' W 005°01'0 0.0
2017-Aug-08 22:01N 54°58' W 005°01'0 0.0
2017-Aug-08 21:30N 54°58' W 005°01'0 0.0
2017-Aug-08 21:00N 54°58' W 005°01'510.0
2017-Aug-08 20:30N 55°02' W 005°06'815.1
2017-Aug-08 20:01N 54°58' W 005°18'917.4
2017-Aug-08 19:30N 54°54' W 005°32'918.5
2017-Aug-08 19:00N 54°52' W 005°47'1 2.4
2017-Aug-08 18:30N 54°51' W 005°48'0 0.0
2017-Aug-08 18:00N 54°51' W 005°48'0 0.0
2017-Aug-08 17:30N 54°51' W 005°48'611.2
2017-Aug-08 17:00N 54°54' W 005°40'918.2
2017-Aug-08 16:30N 54°58' W 005°25'918.0
2017-Aug-08 16:00N 55°01' W 005°11'713.1
2017-Aug-08 15:30N 54°58' W 005°01'0 0.0
2017-Aug-08 15:00N 54°58' W 005°01'0 0.0
2017-Aug-08 14:30N 54°58' W 005°01'511.0
2017-Aug-08 14:00N 55°02' W 005°08'918.9
2017-Aug-08 13:30N 54°58' W 005°23'917.6
2017-Aug-08 13:01N 54°54' W 005°37'714.2
2017-Aug-08 12:31N 54°51' W 005°48'0 0.1
2017-Aug-08 11:59N 54°51' W 005°48'0 0.0
2017-Aug-08 11:30N 54°51' W 005°48'510.3
2017-Aug-08 11:00N 54°54' W 005°40'  

Dump ship's entire track history